sensor_id;sensor_type;location;lat;lon;timestamp;P1;durP1;ratioP1;P2;durP2;ratioP2
1959;SDS011;980;43.794;11.212;2023-02-28T08:07:39;2.00;;;2.00;;
1959;SDS011;980;43.794;11.212;2023-02-28T08:15:56;5.50;;;5.50;;
1959;SDS011;980;43.794;11.212;2023-02-28T08:18:22;3.00;;;3.00;;
1959;SDS011;980;43.794;11.212;2023-02-28T08:20:47;1.00;;;1.00;;
1959;SDS011;980;43.794;11.212;2023-02-28T08:23:12;6.00;;;5.00;;
1959;SDS011;980;43.794;11.212;2023-02-28T08:25:38;5.00;;;4.67;;
1959;SDS011;980;43.794;11.212;2023-02-28T08:28:03;7.00;;;5.00;;
1959;SDS011;980;43.794;11.212;2023-02-28T08:30:28;6.25;;;5.50;;
1959;SDS011;980;43.794;11.212;2023-02-28T08:32:53;4.33;;;4.33;;
1959;SDS011;980;43.794;11.212;2023-02-28T08:35:20;4.20;;;4.20;;
1959;SDS011;980;43.794;11.212;2023-02-28T08:37:47;11.25;;;10.25;;
1959;SDS011;980;43.794;11.212;2023-02-28T08:40:12;6.00;;;5.00;;
1959;SDS011;980;43.794;11.212;2023-02-28T08:42:42;7.20;;;6.00;;
1959;SDS011;980;43.794;11.212;2023-02-28T08:45:08;7.33;;;5.00;;
1959;SDS011;980;43.794;11.212;2023-02-28T08:47:33;3.75;;;2.00;;
1959;SDS011;980;43.794;11.212;2023-02-28T08:49:58;10.50;;;5.00;;
1959;SDS011;980;43.794;11.212;2023-02-28T08:52:24;5.00;;;3.50;;
1959;SDS011;980;43.794;11.212;2023-02-28T08:54:49;8.33;;;6.00;;
1959;SDS011;980;43.794;11.212;2023-02-28T08:57:14;3.67;;;3.67;;
1959;SDS011;980;43.794;11.212;2023-02-28T08:59:39;5.33;;;5.00;;
1959;SDS011;980;43.794;11.212;2023-02-28T09:02:04;5.00;;;5.00;;
1959;SDS011;980;43.794;11.212;2023-02-28T09:04:30;5.33;;;4.00;;
1959;SDS011;980;43.794;11.212;2023-02-28T09:06:58;2.00;;;2.00;;
1959;SDS011;980;43.794;11.212;2023-02-28T09:09:23;7.33;;;4.00;;
1959;SDS011;980;43.794;11.212;2023-02-28T09:11:48;4.00;;;4.00;;
1959;SDS011;980;43.794;11.212;2023-02-28T09:14:14;5.00;;;5.00;;
1959;SDS011;980;43.794;11.212;2023-02-28T09:16:39;4.50;;;4.50;;
1959;SDS011;980;43.794;11.212;2023-02-28T09:19:04;4.00;;;4.00;;
1959;SDS011;980;43.794;11.212;2023-02-28T09:21:29;6.00;;;5.00;;
1959;SDS011;980;43.794;11.212;2023-02-28T09:23:55;8.00;;;6.00;;
1959;SDS011;980;43.794;11.212;2023-02-28T09:26:22;6.00;;;4.67;;
1959;SDS011;980;43.794;11.212;2023-02-28T09:28:47;4.60;;;4.60;;
1959;SDS011;980;43.794;11.212;2023-02-28T09:31:13;5.00;;;5.00;;
1959;SDS011;980;43.794;11.212;2023-02-28T09:33:39;5.00;;;5.00;;
1959;SDS011;980;43.794;11.212;2023-02-28T09:36:04;5.50;;;5.00;;
1959;SDS011;980;43.794;11.212;2023-02-28T09:38:30;6.00;;;6.00;;
1959;SDS011;980;43.794;11.212;2023-02-28T09:40:56;5.00;;;5.00;;
1959;SDS011;980;43.794;11.212;2023-02-28T09:43:22;8.00;;;6.00;;
1959;SDS011;980;43.794;11.212;2023-02-28T09:45:51;3.25;;;2.00;;
1959;SDS011;980;43.794;11.212;2023-02-28T09:48:19;5.00;;;5.00;;
1959;SDS011;980;43.794;11.212;2023-02-28T09:50:52;9.40;;;7.00;;
1959;SDS011;980;43.794;11.212;2023-02-28T09:53:31;3.00;;;3.00;;
1959;SDS011;980;43.794;11.212;2023-02-28T09:56:18;7.00;;;3.00;;
1959;SDS011;980;43.794;11.212;2023-02-28T09:58:52;7.00;;;5.00;;
1959;SDS011;980;43.794;11.212;2023-02-28T10:04:04;6.00;;;6.00;;
1959;SDS011;980;43.794;11.212;2023-02-28T10:06:35;6.00;;;5.00;;
1959;SDS011;980;43.794;11.212;2023-02-28T10:09:05;6.80;;;6.80;;
1959;SDS011;980;43.794;11.212;2023-02-28T10:11:34;6.80;;;6.80;;
1959;SDS011;980;43.794;11.212;2023-02-28T10:14:02;6.00;;;5.75;;
1959;SDS011;980;43.794;11.212;2023-02-28T10:16:37;8.75;;;5.75;;
1959;SDS011;980;43.794;11.212;2023-02-28T10:19:10;6.25;;;5.75;;
1959;SDS011;980;43.794;11.212;2023-02-28T10:21:38;8.20;;;6.00;;
1959;SDS011;980;43.794;11.212;2023-02-28T10:24:11;4.00;;;4.00;;
1959;SDS011;980;43.794;11.212;2023-02-28T10:26:38;4.75;;;4.75;;
1959;SDS011;980;43.794;11.212;2023-02-28T10:29:07;5.25;;;5.25;;
1959;SDS011;980;43.794;11.212;2023-02-28T10:31:33;6.80;;;6.80;;
1959;SDS011;980;43.794;11.212;2023-02-28T10:33:59;4.25;;;4.25;;
1959;SDS011;980;43.794;11.212;2023-02-28T10:36:27;8.00;;;5.80;;
1959;SDS011;980;43.794;11.212;2023-02-28T10:38:53;4.50;;;4.00;;
1959;SDS011;980;43.794;11.212;2023-02-28T10:41:26;7.00;;;5.00;;
1959;SDS011;980;43.794;11.212;2023-02-28T10:43:52;4.33;;;4.33;;
1959;SDS011;980;43.794;11.212;2023-02-28T10:46:18;7.00;;;5.00;;
1959;SDS011;980;43.794;11.212;2023-02-28T10:51:16;2.60;;;2.00;;
1959;SDS011;980;43.794;11.212;2023-02-28T11:01:26;6.40;;;6.40;;
1959;SDS011;980;43.794;11.212;2023-02-28T11:03:59;6.00;;;6.00;;
1959;SDS011;980;43.794;11.212;2023-02-28T11:06:26;5.75;;;5.75;;
1959;SDS011;980;43.794;11.212;2023-02-28T11:08:53;6.25;;;6.25;;
1959;SDS011;980;43.794;11.212;2023-02-28T11:11:18;7.40;;;6.80;;
1959;SDS011;980;43.794;11.212;2023-02-28T11:13:45;8.75;;;7.75;;
1959;SDS011;980;43.794;11.212;2023-02-28T11:16:12;11.75;;;10.00;;
1959;SDS011;980;43.794;11.212;2023-02-28T11:18:42;10.00;;;10.00;;
1959;SDS011;980;43.794;11.212;2023-02-28T11:21:09;9.00;;;9.00;;
1959;SDS011;980;43.794;11.212;2023-02-28T11:48:10;12.20;;;12.20;;
1959;SDS011;980;43.794;11.212;2023-02-28T12:08:47;9.00;;;7.00;;
1959;SDS011;980;43.794;11.212;2023-02-28T12:11:18;10.25;;;8.75;;
1959;SDS011;980;43.794;11.212;2023-02-28T12:13:48;13.00;;;12.00;;
1959;SDS011;980;43.794;11.212;2023-02-28T12:16:20;15.60;;;13.20;;
1959;SDS011;980;43.794;11.212;2023-02-28T12:26:47;16.80;;;16.60;;
1959;SDS011;980;43.794;11.212;2023-02-28T12:39:01;9.00;;;9.00;;
1959;SDS011;980;43.794;11.212;2023-02-28T12:43:58;10.00;;;8.20;;
1959;SDS011;980;43.794;11.212;2023-02-28T12:46:54;10.80;;;10.80;;
1959;SDS011;980;43.794;11.212;2023-02-28T12:49:19;10.00;;;8.50;;
1959;SDS011;980;43.794;11.212;2023-02-28T12:51:47;16.00;;;13.40;;
1959;SDS011;980;43.794;11.212;2023-02-28T12:57:16;14.40;;;11.80;;
1959;SDS011;980;43.794;11.212;2023-02-28T12:59:55;10.25;;;10.25;;
1959;SDS011;980;43.794;11.212;2023-02-28T13:09:57;8.50;;;8.50;;
1959;SDS011;980;43.794;11.212;2023-02-28T13:12:23;10.50;;;10.50;;
1959;SDS011;980;43.794;11.212;2023-02-28T13:14:49;10.25;;;10.00;;
1959;SDS011;980;43.794;11.212;2023-02-28T13:17:18;12.20;;;11.00;;
1959;SDS011;980;43.794;11.212;2023-02-28T13:22:21;11.00;;;10.00;;
1959;SDS011;980;43.794;11.212;2023-02-28T13:25:02;6.00;;;6.00;;
1959;SDS011;980;43.794;11.212;2023-02-28T13:27:37;8.75;;;8.00;;
1959;SDS011;980;43.794;11.212;2023-02-28T13:32:51;14.20;;;13.00;;
1959;SDS011;980;43.794;11.212;2023-02-28T13:35:37;11.60;;;8.40;;
1959;SDS011;980;43.794;11.212;2023-02-28T13:38:16;11.00;;;11.00;;
1959;SDS011;980;43.794;11.212;2023-02-28T13:40:42;8.40;;;8.40;;
1959;SDS011;980;43.794;11.212;2023-02-28T13:43:08;7.50;;;6.50;;
1959;SDS011;980;43.794;11.212;2023-02-28T13:45:33;8.00;;;8.00;;
1959;SDS011;980;43.794;11.212;2023-02-28T13:48:04;10.25;;;9.50;;
1959;SDS011;980;43.794;11.212;2023-02-28T13:50:33;8.75;;;8.00;;
1959;SDS011;980;43.794;11.212;2023-02-28T13:55:33;10.00;;;9.00;;
1959;SDS011;980;43.794;11.212;2023-02-28T14:00:51;4.75;;;4.75;;
1959;SDS011;980;43.794;11.212;2023-02-28T14:03:22;9.75;;;9.75;;
1959;SDS011;980;43.794;11.212;2023-02-28T14:08:35;14.00;;;10.00;;
1959;SDS011;980;43.794;11.212;2023-02-28T14:11:05;13.75;;;10.00;;
1959;SDS011;980;43.794;11.212;2023-02-28T14:13:45;14.00;;;12.80;;
1959;SDS011;980;43.794;11.212;2023-02-28T14:16:20;10.20;;;9.40;;
1959;SDS011;980;43.794;11.212;2023-02-28T14:19:28;9.00;;;9.00;;
1959;SDS011;980;43.794;11.212;2023-02-28T14:21:35;12.20;;;10.20;;
1959;SDS011;980;43.794;11.212;2023-02-28T14:26:59;7.25;;;7.25;;
1959;SDS011;980;43.794;11.212;2023-02-28T14:37:02;9.00;;;9.00;;
1959;SDS011;980;43.794;11.212;2023-02-28T22:44:29;12.25;;;12.25;;
1959;SDS011;980;43.794;11.212;2023-02-28T22:46:55;16.50;;;15.00;;
1959;SDS011;980;43.794;11.212;2023-02-28T22:49:20;14.33;;;14.00;;
1959;SDS011;980;43.794;11.212;2023-02-28T22:51:46;16.00;;;12.25;;
1959;SDS011;980;43.794;11.212;2023-02-28T22:54:11;15.75;;;14.50;;
1959;SDS011;980;43.794;11.212;2023-02-28T22:56:36;11.00;;;9.00;;
1959;SDS011;980;43.794;11.212;2023-02-28T22:59:02;15.00;;;13.00;;
1959;SDS011;980;43.794;11.212;2023-02-28T23:01:28;18.00;;;13.50;;
1959;SDS011;980;43.794;11.212;2023-02-28T23:03:54;12.00;;;10.50;;
1959;SDS011;980;43.794;11.212;2023-02-28T23:06:21;15.50;;;13.00;;
1959;SDS011;980;43.794;11.212;2023-02-28T23:08:46;18.00;;;16.50;;
1959;SDS011;980;43.794;11.212;2023-02-28T23:11:19;15.75;;;14.25;;
1959;SDS011;980;43.794;11.212;2023-02-28T23:13:45;16.25;;;13.50;;
1959;SDS011;980;43.794;11.212;2023-02-28T23:16:22;13.50;;;13.50;;
1959;SDS011;980;43.794;11.212;2023-02-28T23:18:47;16.80;;;14.20;;
1959;SDS011;980;43.794;11.212;2023-02-28T23:21:13;13.67;;;13.67;;
1959;SDS011;980;43.794;11.212;2023-02-28T23:23:38;16.50;;;12.25;;
1959;SDS011;980;43.794;11.212;2023-02-28T23:26:06;15.25;;;15.00;;
1959;SDS011;980;43.794;11.212;2023-02-28T23:28:32;15.80;;;15.00;;
1959;SDS011;980;43.794;11.212;2023-02-28T23:30:59;19.00;;;17.00;;
1959;SDS011;980;43.794;11.212;2023-02-28T23:33:28;19.50;;;16.50;;
1959;SDS011;980;43.794;11.212;2023-02-28T23:35:53;16.50;;;15.50;;
1959;SDS011;980;43.794;11.212;2023-02-28T23:38:19;16.00;;;16.00;;
1959;SDS011;980;43.794;11.212;2023-02-28T23:40:44;19.25;;;19.25;;
1959;SDS011;980;43.794;11.212;2023-02-28T23:43:10;26.67;;;17.33;;
1959;SDS011;980;43.794;11.212;2023-02-28T23:45:35;23.33;;;19.00;;
1959;SDS011;980;43.794;11.212;2023-02-28T23:48:01;24.40;;;18.40;;
1959;SDS011;980;43.794;11.212;2023-02-28T23:50:27;21.00;;;18.60;;
1959;SDS011;980;43.794;11.212;2023-02-28T23:52:52;19.33;;;16.33;;
1959;SDS011;980;43.794;11.212;2023-02-28T23:55:17;20.00;;;20.00;;
1959;SDS011;980;43.794;11.212;2023-02-28T23:57:44;16.40;;;16.20;;
